Time;durP1;ratioP1;P1;durP2;ratioP2;P2;SDS_P1;SDS_P2;PMS_P1;PMS_P2;Temp;Humidity;BMP_temperature;BMP_pressure;BME280_temperature;BME280_humidity;BME280_pressure;Samples;Min_cycle;Max_cycle;Signal;HPM_P1;HPM_P2
2020/12/15 00:00:27;;;;;;;44.20;22.27;;;;;;;;;;4947256;29;20208;-79
2020/12/15 00:02:54;;;;;;;39.20;20.93;;;;;;;;;;4959711;28;20181;-79
2020/12/15 00:05:20;;;;;;;38.03;20.83;;;;;;;;;;4976365;28;20176;-79
2020/12/15 00:07:46;;;;;;;38.10;21.30;;;;;;;;;;4977538;28;20291;-78
2020/12/15 00:10:13;;;;;;;43.33;19.77;;;;;;;;;;4977206;28;20188;-78
2020/12/15 00:12:41;;;;;;;37.30;21.17;;;;;;;;;;4977245;28;20222;-78
2020/12/15 00:15:07;;;;;;;40.27;21.83;;;;;;;;;;4976863;28;20180;-78
2020/12/15 00:17:33;;;;;;;40.83;21.17;;;;;;;;;;4976955;28;20636;-78
2020/12/15 00:20:00;;;;;;;38.07;21.30;;;;;;;;;;4977147;28;20647;-78
2020/12/15 00:22:26;;;;;;;42.43;22.87;;;;;;;;;;4977036;28;20205;-78
2020/12/15 00:24:52;;;;;;;38.13;21.83;;;;;;;;;;4977293;28;20551;-77
2020/12/15 00:27:18;;;;;;;41.17;21.67;;;;;;;;;;4975828;28;20631;-78
2020/12/15 00:29:44;;;;;;;39.27;21.23;;;;;;;;;;4976895;28;20218;-78
2020/12/15 00:32:10;;;;;;;44.80;23.13;;;;;;;;;;4977151;28;20188;-77
2020/12/15 00:34:37;;;;;;;44.43;23.73;;;;;;;;;;4977296;28;20180;-78
2020/12/15 00:37:03;;;;;;;41.53;22.50;;;;;;;;;;4976893;28;20189;-78
2020/12/15 00:39:30;;;;;;;41.93;21.70;;;;;;;;;;4976801;28;20212;-78
2020/12/15 00:41:56;;;;;;;41.77;23.00;;;;;;;;;;4977176;28;20185;-77
2020/12/15 00:44:22;;;;;;;57.73;24.33;;;;;;;;;;4975465;28;20279;-77
2020/12/15 00:46:49;;;;;;;43.40;23.00;;;;;;;;;;4968509;28;20272;-78
2020/12/15 00:49:15;;;;;;;52.43;23.40;;;;;;;;;;4976985;28;20236;-78
2020/12/15 00:51:42;;;;;;;63.27;23.50;;;;;;;;;;4977063;28;20215;-77
2020/12/15 00:54:08;;;;;;;48.90;23.47;;;;;;;;;;4977089;28;20655;-78
2020/12/15 00:56:34;;;;;;;46.97;23.23;;;;;;;;;;4976767;28;20185;-78
2020/12/15 00:59:00;;;;;;;54.90;23.17;;;;;;;;;;4970037;28;20593;-78
2020/12/15 01:01:26;;;;;;;54.47;22.90;;;;;;;;;;4971291;28;20231;-79
2020/12/15 01:03:52;;;;;;;49.77;23.50;;;;;;;;;;4977357;28;20181;-78
2020/12/15 01:06:18;;;;;;;55.77;23.47;;;;;;;;;;4977029;28;20180;-77
2020/12/15 01:08:45;;;;;;;55.47;23.83;;;;;;;;;;4977300;28;20247;-78
2020/12/15 01:11:11;;;;;;;45.20;23.93;;;;;;;;;;4977522;28;20196;-78
2020/12/15 01:13:38;;;;;;;49.33;23.50;;;;;;;;;;4977424;28;20180;-78
2020/12/15 01:16:05;;;;;;;55.43;23.03;;;;;;;;;;4977838;28;20184;-78
2020/12/15 01:18:31;;;;;;;51.50;23.53;;;;;;;;;;4977218;28;20299;-78
2020/12/15 01:20:57;;;;;;;52.77;23.93;;;;;;;;;;4977025;28;20200;-78
2020/12/15 01:23:23;;;;;;;59.17;24.53;;;;;;;;;;4977234;28;20188;-78
2020/12/15 01:25:49;;;;;;;48.07;24.77;;;;;;;;;;4975894;28;20581;-77
2020/12/15 01:28:15;;;;;;;45.50;23.47;;;;;;;;;;4976682;28;20204;-78
2020/12/15 01:30:42;;;;;;;46.00;23.37;;;;;;;;;;4977216;28;20652;-78
2020/12/15 01:33:08;;;;;;;50.37;24.00;;;;;;;;;;4976996;28;20188;-78
2020/12/15 01:35:34;;;;;;;54.70;24.53;;;;;;;;;;4976372;28;20188;-78
2020/12/15 01:38:00;;;;;;;60.50;25.27;;;;;;;;;;4976826;28;20208;-78
2020/12/15 01:40:27;;;;;;;58.03;25.40;;;;;;;;;;4978033;28;20183;-77
2020/12/15 01:42:53;;;;;;;58.33;26.33;;;;;;;;;;4980841;28;20180;-77
2020/12/15 01:45:20;;;;;;;65.83;25.80;;;;;;;;;;4974813;28;20184;-78
2020/12/15 01:47:46;;;;;;;59.27;25.87;;;;;;;;;;4959940;28;20197;-78
2020/12/15 01:50:13;;;;;;;60.63;28.50;;;;;;;;;;4970772;28;20207;-78
2020/12/15 01:52:39;;;;;;;62.07;26.50;;;;;;;;;;4980690;28;20188;-77
2020/12/15 01:55:07;;;;;;;56.23;25.37;;;;;;;;;;4979007;28;20180;-78
2020/12/15 01:57:33;;;;;;;59.47;26.33;;;;;;;;;;4980705;28;20188;-78
2020/12/15 01:59:59;;;;;;;56.13;25.17;;;;;;;;;;4981450;28;20180;-78
2020/12/15 02:02:25;;;;;;;54.57;25.60;;;;;;;;;;4980482;28;20180;-78
2020/12/15 02:04:51;;;;;;;57.03;25.93;;;;;;;;;;4966131;28;20192;-78
2020/12/15 02:07:19;;;;;;;54.47;25.17;;;;;;;;;;4966711;28;20623;-78
2020/12/15 02:09:46;;;;;;;61.07;27.23;;;;;;;;;;4979800;28;20208;-77
2020/12/15 02:12:13;;;;;;;65.83;26.97;;;;;;;;;;4979569;28;20260;-78
2020/12/15 02:14:39;;;;;;;64.40;27.23;;;;;;;;;;4979310;28;20224;-78
2020/12/15 02:17:06;;;;;;;67.10;27.97;;;;;;;;;;4978226;28;20670;-78
2020/12/15 02:19:32;;;;;;;62.10;26.80;;;;;;;;;;4970653;28;20204;-78
2020/12/15 02:22:02;;;;;;;47.10;23.97;;;;;;;;;;4960199;28;20207;-78
2020/12/15 02:24:28;;;;;;;51.83;23.87;;;;;;;;;;4971552;28;20176;-78
2020/12/15 02:26:54;;;;;;;43.17;23.47;;;;;;;;;;4961017;28;20293;-78
2020/12/15 02:29:21;;;;;;;40.33;21.07;;;;;;;;;;4974182;28;20204;-78
2020/12/15 02:31:47;;;;;;;43.70;21.43;;;;;;;;;;4959275;28;20181;-78
2020/12/15 02:34:14;;;;;;;37.07;21.03;;;;;;;;;;4964711;28;20184;-78
2020/12/15 02:36:42;;;;;;;41.03;21.80;;;;;;;;;;4980330;28;20271;-78
2020/12/15 02:39:11;;;;;;;38.57;21.27;;;;;;;;;;4978531;28;20209;-78
2020/12/15 02:41:38;;;;;;;35.73;19.57;;;;;;;;;;4979968;28;20185;-78
2020/12/15 02:44:04;;;;;;;43.70;20.67;;;;;;;;;;4978545;28;20188;-78
2020/12/15 02:46:31;;;;;;;37.07;20.60;;;;;;;;;;4971397;28;20636;-78
2020/12/15 02:48:57;;;;;;;38.50;21.17;;;;;;;;;;4979658;28;20232;-78
2020/12/15 02:51:24;;;;;;;45.53;22.87;;;;;;;;;;4972569;28;20200;-78
2020/12/15 02:53:51;;;;;;;45.57;24.00;;;;;;;;;;4980212;28;20549;-78
2020/12/15 02:56:20;;;;;;;46.33;24.17;;;;;;;;;;4980232;28;20177;-77
2020/12/15 02:58:46;;;;;;;45.63;24.20;;;;;;;;;;4965568;28;20299;-78
2020/12/15 03:01:12;;;;;;;41.10;22.43;;;;;;;;;;4947819;28;20193;-78
2020/12/15 03:03:39;;;;;;;45.90;22.77;;;;;;;;;;4958979;28;20181;-78
2020/12/15 03:06:05;;;;;;;47.87;23.97;;;;;;;;;;4959248;28;20192;-78
2020/12/15 03:08:31;;;;;;;43.63;22.83;;;;;;;;;;4976286;28;20208;-78
2020/12/15 03:10:57;;;;;;;41.13;22.40;;;;;;;;;;4979606;28;20255;-78
2020/12/15 03:13:23;;;;;;;44.53;23.23;;;;;;;;;;4978830;28;20219;-78
2020/12/15 03:15:50;;;;;;;48.57;24.67;;;;;;;;;;4979577;28;20199;-77
2020/12/15 03:18:16;;;;;;;48.23;22.73;;;;;;;;;;4978699;28;20243;-77
2020/12/15 03:20:46;;;;;;;51.63;25.33;;;;;;;;;;4977879;28;20196;-77
2020/12/15 03:23:13;;;;;;;57.57;26.73;;;;;;;;;;4979245;28;20410;-78
2020/12/15 03:25:39;;;;;;;56.23;26.37;;;;;;;;;;4979269;28;20184;-78
2020/12/15 03:28:05;;;;;;;58.20;26.80;;;;;;;;;;4979142;28;20212;-76
2020/12/15 03:30:32;;;;;;;62.70;28.00;;;;;;;;;;4979294;28;20191;-78
2020/12/15 03:32:58;;;;;;;61.07;28.87;;;;;;;;;;4979414;28;20265;-77
2020/12/15 03:35:24;;;;;;;62.03;26.70;;;;;;;;;;4978228;28;20188;-78
2020/12/15 03:37:51;;;;;;;63.43;27.23;;;;;;;;;;4978217;28;20734;-78
2020/12/15 03:40:17;;;;;;;61.77;27.43;;;;;;;;;;4979776;28;20188;-78
2020/12/15 03:42:43;;;;;;;49.07;24.13;;;;;;;;;;4979508;28;20179;-78
2020/12/15 03:45:10;;;;;;;56.97;26.47;;;;;;;;;;4974626;28;20731;-78
2020/12/15 03:47:36;;;;;;;60.90;26.27;;;;;;;;;;4974175;28;20270;-78
2020/12/15 03:50:03;;;;;;;61.70;26.47;;;;;;;;;;4980363;28;20265;-78
2020/12/15 03:52:29;;;;;;;88.13;35.63;;;;;;;;;;4960245;28;20182;-78
2020/12/15 03:54:55;;;;;;;73.37;31.47;;;;;;;;;;4978450;28;20184;-78
2020/12/15 03:57:21;;;;;;;70.77;30.47;;;;;;;;;;4979604;28;20639;-77
2020/12/15 03:59:48;;;;;;;62.90;27.73;;;;;;;;;;4979513;28;20299;-78
2020/12/15 04:02:14;;;;;;;60.97;26.07;;;;;;;;;;4979912;28;20201;-78
2020/12/15 04:04:41;;;;;;;61.70;27.03;;;;;;;;;;4978523;28;20177;-77
2020/12/15 04:07:07;;;;;;;61.07;27.87;;;;;;;;;;4978685;28;20183;-78
2020/12/15 04:09:33;;;;;;;59.83;27.37;;;;;;;;;;4979198;28;20686;-77
2020/12/15 04:11:59;;;;;;;57.00;27.23;;;;;;;;;;4980670;28;20208;-78
2020/12/15 04:14:26;;;;;;;57.43;26.07;;;;;;;;;;4979285;28;20184;-77
2020/12/15 04:16:52;;;;;;;56.67;27.67;;;;;;;;;;4962876;28;20656;-78
2020/12/15 04:19:18;;;;;;;65.30;26.10;;;;;;;;;;4967345;28;20216;-78
2020/12/15 04:21:45;;;;;;;60.53;27.13;;;;;;;;;;4978234;28;20283;-78
2020/12/15 04:24:11;;;;;;;59.23;26.37;;;;;;;;;;4978452;28;20181;-77
2020/12/15 04:26:38;;;;;;;50.17;25.17;;;;;;;;;;4978287;28;20188;-77
2020/12/15 04:29:04;;;;;;;54.57;24.80;;;;;;;;;;4976975;28;20200;-78
2020/12/15 04:31:30;;;;;;;50.57;24.60;;;;;;;;;;4978564;28;20242;-78
2020/12/15 04:33:56;;;;;;;56.13;24.60;;;;;;;;;;4976594;28;20187;-78
2020/12/15 04:36:24;;;;;;;86.97;42.93;;;;;;;;;;4978219;28;20184;-78
2020/12/15 04:38:50;;;;;;;62.73;30.37;;;;;;;;;;4976495;28;20208;-77
2020/12/15 04:41:17;;;;;;;60.77;28.73;;;;;;;;;;4978095;28;20639;-78
2020/12/15 04:43:44;;;;;;;51.40;25.57;;;;;;;;;;4978072;28;20260;-77
2020/12/15 04:46:16;;;;;;;49.73;24.80;;;;;;;;;;4964125;28;20263;-78
2020/12/15 04:48:49;;;;;;;49.87;24.43;;;;;;;;;;4978044;28;20208;-78
2020/12/15 04:51:17;;;;;;;45.93;23.83;;;;;;;;;;4978767;28;20184;-78
2020/12/15 04:53:45;;;;;;;55.27;26.93;;;;;;;;;;4977892;28;20196;-78
2020/12/15 04:56:31;;;;;;;57.70;26.77;;;;;;;;;;4976542;28;20308;-78
2020/12/15 04:58:58;;;;;;;57.10;25.13;;;;;;;;;;4978137;28;20215;-78
2020/12/15 05:01:24;;;;;;;57.03;26.53;;;;;;;;;;4961619;28;20185;-78
2020/12/15 05:03:55;;;;;;;48.30;24.37;;;;;;;;;;4950857;28;20222;-78
2020/12/15 05:06:25;;;;;;;54.83;26.53;;;;;;;;;;4954511;28;20272;-77
2020/12/15 05:08:51;;;;;;;120.40;54.97;;;;;;;;;;4963657;28;20196;-78
2020/12/15 05:11:17;;;;;;;65.17;30.00;;;;;;;;;;4976605;28;20194;-78
2020/12/15 05:13:43;;;;;;;79.90;36.57;;;;;;;;;;4978321;28;20189;-78
2020/12/15 05:16:09;;;;;;;70.20;28.93;;;;;;;;;;4976995;28;20238;-78
2020/12/15 05:18:36;;;;;;;80.73;30.93;;;;;;;;;;4977787;28;20305;-77
2020/12/15 05:21:16;;;;;;;70.83;29.83;;;;;;;;;;4977600;28;20576;-78
2020/12/15 05:23:46;;;;;;;73.30;28.97;;;;;;;;;;4963029;28;20165;-77
2020/12/15 05:26:12;;;;;;;59.40;27.20;;;;;;;;;;4965202;28;20181;-78
2020/12/15 05:28:38;;;;;;;65.17;27.67;;;;;;;;;;4978357;28;20616;-78
2020/12/15 05:31:05;;;;;;;69.33;27.87;;;;;;;;;;4978185;28;20608;-78
2020/12/15 05:33:31;;;;;;;73.70;30.30;;;;;;;;;;4977656;28;20198;-78
2020/12/15 05:35:57;;;;;;;96.03;31.80;;;;;;;;;;4977345;28;20204;-78
2020/12/15 05:38:23;;;;;;;81.90;30.30;;;;;;;;;;4960554;28;20570;-78
2020/12/15 05:40:50;;;;;;;99.70;29.93;;;;;;;;;;4978148;28;20184;-78
2020/12/15 05:43:24;;;;;;;101.00;29.83;;;;;;;;;;4978967;28;20184;-78
2020/12/15 05:45:50;;;;;;;94.00;30.77;;;;;;;;;;4969613;28;20185;-78
2020/12/15 05:48:18;;;;;;;77.40;30.17;;;;;;;;;;4977284;28;20235;-77
2020/12/15 05:50:44;;;;;;;92.00;33.47;;;;;;;;;;4968734;28;20181;-78
2020/12/15 05:53:13;;;;;;;75.10;30.37;;;;;;;;;;4963859;28;20697;-80
2020/12/15 05:55:40;;;;;;;66.13;27.23;;;;;;;;;;4977532;28;20188;-78
2020/12/15 05:58:06;;;;;;;68.43;27.53;;;;;;;;;;4977393;28;20241;-80
2020/12/15 06:00:33;;;;;;;64.33;26.70;;;;;;;;;;4977764;28;20180;-78
2020/12/15 06:03:00;;;;;;;65.97;26.83;;;;;;;;;;4977210;28;20207;-80
2020/12/15 06:05:31;;;;;;;63.30;26.57;;;;;;;;;;4979155;28;20200;-80
2020/12/15 06:07:57;;;;;;;67.63;27.80;;;;;;;;;;4979122;28;20204;-80
2020/12/15 06:10:24;;;;;;;64.90;27.53;;;;;;;;;;4978948;28;20172;-80
2020/12/15 06:12:51;;;;;;;56.63;25.97;;;;;;;;;;4978476;28;20180;-80
2020/12/15 06:15:17;;;;;;;54.37;25.47;;;;;;;;;;4978135;28;20264;-80
2020/12/15 06:17:48;;;;;;;49.47;24.50;;;;;;;;;;4978255;28;20176;-80
2020/12/15 06:20:14;;;;;;;53.20;27.07;;;;;;;;;;4977436;28;20247;-79
2020/12/15 06:22:41;;;;;;;46.73;23.17;;;;;;;;;;4977832;28;20184;-79
2020/12/15 06:25:07;;;;;;;50.97;24.13;;;;;;;;;;4976290;28;20177;-79
2020/12/15 06:27:37;;;;;;;52.93;24.33;;;;;;;;;;4978843;28;20191;-80
2020/12/15 06:30:07;;;;;;;58.27;26.03;;;;;;;;;;4981453;28;20258;-80
2020/12/15 06:32:33;;;;;;;57.00;25.17;;;;;;;;;;4980970;28;20725;-79
2020/12/15 06:35:06;;;;;;;52.73;25.70;;;;;;;;;;4981148;28;20184;-79
2020/12/15 06:37:36;;;;;;;62.57;25.23;;;;;;;;;;4979207;28;20199;-79
2020/12/15 06:40:03;;;;;;;53.43;25.80;;;;;;;;;;4980905;28;20200;-80
2020/12/15 06:42:30;;;;;;;56.07;24.90;;;;;;;;;;4978602;28;20181;-79
2020/12/15 06:45:09;;;;;;;54.83;25.97;;;;;;;;;;4961336;28;20181;-79
2020/12/15 06:47:36;;;;;;;53.00;24.97;;;;;;;;;;4978022;28;20215;-79
2020/12/15 06:50:15;;;;;;;56.03;25.17;;;;;;;;;;4981536;28;20306;-79
2020/12/15 06:52:42;;;;;;;51.60;25.07;;;;;;;;;;4981122;28;20263;-79
2020/12/15 06:55:08;;;;;;;63.07;25.10;;;;;;;;;;4972959;28;20611;-79
2020/12/15 06:57:37;;;;;;;73.43;27.53;;;;;;;;;;4961317;28;20185;-79
2020/12/15 07:00:08;;;;;;;54.30;25.90;;;;;;;;;;4980376;28;20216;-79
2020/12/15 07:02:35;;;;;;;63.20;27.53;;;;;;;;;;4971867;28;20534;-79
2020/12/15 07:05:16;;;;;;;61.83;27.90;;;;;;;;;;4962589;28;20208;-80
2020/12/15 07:07:47;;;;;;;72.00;28.60;;;;;;;;;;4978131;28;20300;-79
2020/12/15 07:10:14;;;;;;;64.03;26.43;;;;;;;;;;4962209;28;20184;-79
2020/12/15 07:12:41;;;;;;;63.50;27.97;;;;;;;;;;4980265;28;20188;-79
2020/12/15 07:15:11;;;;;;;68.50;28.57;;;;;;;;;;4980203;28;20188;-78
2020/12/15 07:17:37;;;;;;;74.17;29.20;;;;;;;;;;4973075;28;20184;-78
2020/12/15 07:20:03;;;;;;;73.37;27.40;;;;;;;;;;4960548;28;20291;-80
2020/12/15 07:22:29;;;;;;;61.57;27.13;;;;;;;;;;4979515;28;20561;-78
2020/12/15 07:24:56;;;;;;;69.57;28.57;;;;;;;;;;4980329;28;20227;-78
2020/12/15 07:27:23;;;;;;;67.43;28.17;;;;;;;;;;4979771;28;20251;-79
2020/12/15 07:29:56;;;;;;;68.60;27.67;;;;;;;;;;4979835;28;20200;-79
2020/12/15 07:32:22;;;;;;;64.77;26.60;;;;;;;;;;4980152;28;20188;-79
2020/12/15 07:34:49;;;;;;;52.70;24.97;;;;;;;;;;4979995;28;20640;-79
2020/12/15 07:37:19;;;;;;;50.30;25.50;;;;;;;;;;4979889;28;20189;-79
2020/12/15 07:39:46;;;;;;;60.90;28.20;;;;;;;;;;4971919;28;20205;-79
2020/12/15 07:42:12;;;;;;;52.50;26.23;;;;;;;;;;4960614;28;20208;-79
2020/12/15 07:44:38;;;;;;;52.73;26.83;;;;;;;;;;4978344;28;20260;-79
2020/12/15 07:47:04;;;;;;;45.97;23.97;;;;;;;;;;4965423;28;20178;-79
2020/12/15 07:49:31;;;;;;;54.97;26.20;;;;;;;;;;4977073;28;20219;-80
2020/12/15 07:51:58;;;;;;;43.20;22.60;;;;;;;;;;4979626;28;20639;-78
2020/12/15 07:54:24;;;;;;;47.40;23.67;;;;;;;;;;4977574;28;20193;-80
2020/12/15 07:56:52;;;;;;;46.60;23.33;;;;;;;;;;4979945;28;20182;-79
2020/12/15 07:59:19;;;;;;;49.43;24.57;;;;;;;;;;4977817;28;20274;-79
2020/12/15 08:01:45;;;;;;;46.40;24.03;;;;;;;;;;4979268;28;20184;-79
2020/12/15 08:04:12;;;;;;;44.60;23.73;;;;;;;;;;4977823;28;20184;-79
2020/12/15 08:06:39;;;;;;;50.30;24.67;;;;;;;;;;4977823;28;20180;-80
2020/12/15 08:09:09;;;;;;;57.23;28.50;;;;;;;;;;4978108;28;20196;-79
2020/12/15 08:11:36;;;;;;;46.23;24.77;;;;;;;;;;4978899;28;20184;-78
2020/12/15 08:14:03;;;;;;;70.33;38.20;;;;;;;;;;4979146;28;20302;-79
2020/12/15 08:16:30;;;;;;;49.50;26.80;;;;;;;;;;4979430;28;20189;-79
2020/12/15 08:18:59;;;;;;;43.93;24.37;;;;;;;;;;4978435;28;20212;-79
2020/12/15 08:21:37;;;;;;;46.33;23.77;;;;;;;;;;4978803;28;20196;-80
2020/12/15 08:24:04;;;;;;;48.30;24.87;;;;;;;;;;4977120;28;20643;-79
2020/12/15 08:26:32;;;;;;;45.90;24.63;;;;;;;;;;4978408;28;20644;-79
2020/12/15 08:29:03;;;;;;;51.40;24.67;;;;;;;;;;4978193;28;20205;-78
2020/12/15 08:31:29;;;;;;;50.47;25.27;;;;;;;;;;4967949;28;20663;-79
2020/12/15 08:33:56;;;;;;;91.47;42.23;;;;;;;;;;4960852;28;20188;-79
2020/12/15 08:36:22;;;;;;;60.63;28.07;;;;;;;;;;4977619;28;20184;-79
2020/12/15 08:38:51;;;;;;;55.63;26.70;;;;;;;;;;4977778;28;20208;-79
2020/12/15 08:41:18;;;;;;;68.33;30.83;;;;;;;;;;4976543;28;20185;-79
2020/12/15 08:43:49;;;;;;;59.43;27.00;;;;;;;;;;4977066;28;20566;-79
2020/12/15 08:46:16;;;;;;;62.43;30.73;;;;;;;;;;4969720;28;20172;-79
2020/12/15 08:48:42;;;;;;;69.27;33.60;;;;;;;;;;4978523;28;20208;-78
2020/12/15 08:51:13;;;;;;;59.57;29.07;;;;;;;;;;4973510;28;20196;-79
2020/12/15 08:53:40;;;;;;;57.43;26.20;;;;;;;;;;4968970;28;20197;-79
2020/12/15 08:56:12;;;;;;;58.27;27.17;;;;;;;;;;4978027;28;20215;-78
2020/12/15 08:58:38;;;;;;;64.13;27.97;;;;;;;;;;4977605;28;20572;-78
2020/12/15 09:01:05;;;;;;;64.40;28.77;;;;;;;;;;4977889;28;20635;-78
2020/12/15 09:03:35;;;;;;;58.90;27.70;;;;;;;;;;4960928;28;20188;-80
2020/12/15 09:06:01;;;;;;;66.73;29.70;;;;;;;;;;4978050;28;20183;-79
2020/12/15 09:08:28;;;;;;;67.67;30.50;;;;;;;;;;4978428;28;20215;-79
2020/12/15 09:10:56;;;;;;;58.57;29.63;;;;;;;;;;4978428;28;20184;-79
2020/12/15 09:13:23;;;;;;;51.83;28.23;;;;;;;;;;4977931;28;20196;-80
2020/12/15 09:15:53;;;;;;;54.60;26.90;;;;;;;;;;4973808;28;20185;-80
2020/12/15 09:18:33;;;;;;;54.07;27.63;;;;;;;;;;4971817;28;20215;-78
2020/12/15 09:21:12;;;;;;;73.40;36.37;;;;;;;;;;4978224;28;20207;-79
2020/12/15 09:23:39;;;;;;;80.30;37.53;;;;;;;;;;4977997;28;20181;-78
2020/12/15 09:26:05;;;;;;;52.77;27.60;;;;;;;;;;4977748;28;20172;-79
2020/12/15 09:28:31;;;;;;;43.10;24.60;;;;;;;;;;4977338;28;20236;-79
2020/12/15 09:30:57;;;;;;;39.93;22.87;;;;;;;;;;4976363;28;20236;-78
2020/12/15 09:33:24;;;;;;;41.67;21.53;;;;;;;;;;4978516;28;20249;-79
2020/12/15 09:35:50;;;;;;;39.87;22.30;;;;;;;;;;4977038;28;20648;-78
2020/12/15 09:38:17;;;;;;;41.67;22.23;;;;;;;;;;4977986;28;20211;-79
2020/12/15 09:40:44;;;;;;;53.10;28.20;;;;;;;;;;4977369;28;20555;-78
2020/12/15 09:43:11;;;;;;;53.13;28.87;;;;;;;;;;4977730;28;20180;-79
2020/12/15 09:45:37;;;;;;;68.27;29.97;;;;;;;;;;4969088;28;20649;-80
2020/12/15 09:48:04;;;;;;;60.03;30.97;;;;;;;;;;4957494;29;20255;-80
2020/12/15 09:50:31;;;;;;;61.03;30.00;;;;;;;;;;4967970;28;20248;-79
2020/12/15 09:52:58;;;;;;;79.90;37.20;;;;;;;;;;4977492;28;20188;-80
2020/12/15 09:55:25;;;;;;;62.43;30.23;;;;;;;;;;4966766;28;20317;-78
2020/12/15 09:57:52;;;;;;;60.50;30.20;;;;;;;;;;4974104;28;20332;-79
2020/12/15 10:00:19;;;;;;;65.20;32.53;;;;;;;;;;4976762;28;20271;-79
2020/12/15 10:02:45;;;;;;;78.33;38.90;;;;;;;;;;4979447;28;20661;-78
2020/12/15 10:05:12;;;;;;;68.17;34.87;;;;;;;;;;4981164;28;20183;-80
2020/12/15 10:07:38;;;;;;;61.43;31.50;;;;;;;;;;4981290;28;20216;-79
2020/12/15 10:10:05;;;;;;;59.27;31.53;;;;;;;;;;4981114;28;20195;-78
2020/12/15 10:12:32;;;;;;;57.90;32.07;;;;;;;;;;4981026;28;20248;-79
2020/12/15 10:14:59;;;;;;;64.63;31.97;;;;;;;;;;4979088;28;20196;-78
2020/12/15 10:17:27;;;;;;;64.87;32.20;;;;;;;;;;4980236;28;20182;-77
2020/12/15 10:19:53;;;;;;;66.97;32.30;;;;;;;;;;4980382;28;20271;-79
2020/12/15 10:22:19;;;;;;;61.83;31.67;;;0.20;99.90;;;;;;4975584;28;20587;-80
2020/12/15 10:24:45;;;;;;;62.47;33.23;;;4.20;99.90;;;;;;4959693;28;20703;-79
2020/12/15 10:27:11;;;;;;;58.10;31.00;;;4.20;99.90;;;;;;4975516;28;20263;-79
2020/12/15 10:29:41;;;;;;;62.60;31.87;;;4.30;99.90;;;;;;4980438;28;20205;-79
2020/12/15 10:32:08;;;;;;;64.17;32.07;;;4.30;99.90;;;;;;4980331;28;20191;-80
2020/12/15 10:34:34;;;;;;;61.47;31.03;;;4.20;99.90;;;;;;4980849;28;20193;-79
2020/12/15 10:37:01;;;;;;;62.13;31.57;;;4.30;99.90;;;;;;4968878;28;20260;-78
2020/12/15 10:39:29;;;;;;;63.43;31.43;;;4.30;99.90;;;;;;4966572;28;20231;-80
2020/12/15 10:41:56;;;;;;;80.13;39.80;;;4.40;99.90;;;;;;4976705;28;20188;-79
2020/12/15 10:44:22;;;;;;;60.10;31.07;;;4.50;99.90;;;;;;4962204;28;20206;-79
2020/12/15 10:46:50;;;;;;;59.33;30.77;;;;;;;;;;4971830;28;20236;-79
2020/12/15 10:49:16;;;;;;;52.93;29.80;;;;;;;;;;4982130;28;20628;-80
2020/12/15 10:51:43;;;;;;;55.00;28.40;;;;;;;;;;4980475;28;20219;-79
2020/12/15 10:54:09;;;;;;;57.03;30.20;;;;;;;;;;4981053;28;20182;-80
2020/12/15 10:56:36;;;;;;;76.53;38.40;;;;;;;;;;4980499;28;20198;-80
2020/12/15 10:59:03;;;;;;;56.90;30.40;;;;;;;;;;4968471;28;20244;-79
2020/12/15 11:01:30;;;;;;;56.27;30.17;;;;;;;;;;4975239;28;20208;-79
2020/12/15 11:03:58;;;;;;;56.30;29.80;;;;;;;;;;4980008;28;20193;-79
2020/12/15 11:06:26;;;;;;;51.87;27.77;;;;;;;;;;4979975;28;20189;-79
2020/12/15 11:08:52;;;;;;;138.07;59.97;;;;;;;;;;4979618;28;20196;-79
2020/12/15 11:11:19;;;;;;;76.63;39.73;;;;;;;;;;4978782;28;20231;-79
2020/12/15 11:13:46;;;;;;;74.30;37.27;;;;;;;;;;4979056;28;20188;-79
2020/12/15 11:16:13;;;;;;;52.30;28.67;;;;;;;;;;4980236;28;20615;-80
2020/12/15 11:18:40;;;;;;;52.27;29.37;;;;;;;;;;4979530;28;20218;-80
2020/12/15 11:21:06;;;;;;;56.53;29.03;;;;;;;;;;4974452;28;20228;-80
2020/12/15 11:23:33;;;;;;;52.37;28.60;;;;;;;;;;4957462;28;20219;-81
2020/12/15 11:25:58;;;;;;;50.27;27.63;;;;;;;;;;4980195;28;20184;-79
2020/12/15 11:28:25;;;;;;;49.97;28.37;;;;;;;;;;4978587;28;20200;-80
2020/12/15 11:30:51;;;;;;;51.93;28.33;;;;;;;;;;4979713;28;20181;-80
2020/12/15 11:33:17;;;;;;;50.40;28.53;;;;;;;;;;4979751;28;20258;-79
2020/12/15 11:35:43;;;;;;;52.13;28.17;;;;;;;;;;4980504;28;20184;-79
2020/12/15 11:38:09;;;;;;;63.20;32.77;;;;;;;;;;4980118;28;20203;-79
2020/12/15 11:40:36;;;;;;;62.30;32.17;;;;;;;;;;4980796;28;20586;-79
2020/12/15 11:43:05;;;;;;;67.83;33.10;;;;;;;;;;4979812;28;20181;-80
2020/12/15 11:45:48;;;;;;;;;;;;;;;;;;;;;
2020/12/15 11:48:14;;;;;;;60.83;32.63;;;;;;;;;;4947888;28;20198;-80
2020/12/15 11:50:48;;;;;;;59.90;32.20;;;;;;;;;;4960568;28;20274;-79
2020/12/15 11:53:15;;;;;;;64.23;31.43;;;;;;;;;;4979610;28;20180;-79
2020/12/15 11:55:41;;;;;;;64.70;32.80;;;;;;;;;;4979164;28;20239;-80
2020/12/15 11:58:07;;;;;;;77.63;36.87;;;;;;;;;;4979057;28;20201;-80
2020/12/15 12:00:34;;;;;;;64.43;32.30;;;;;;;;;;4978846;28;20181;-80
2020/12/15 12:03:00;;;;;;;67.00;33.53;;;;;;;;;;4979318;28;20209;-79
2020/12/15 12:05:27;;;;;;;64.83;33.40;;;;;;;;;;4979463;28;20181;-77
2020/12/15 12:07:53;;;;;;;72.57;35.90;;;;;;;;;;4978608;28;20252;-80
2020/12/15 12:10:19;;;;;;;66.37;33.70;;;;;;;;;;4978636;28;20176;-79
2020/12/15 12:12:46;;;;;;;72.13;35.17;;;;;;;;;;4978222;28;20180;-79
2020/12/15 12:15:12;;;;;;;71.20;33.83;;;;;;;;;;4978472;28;20184;-79
2020/12/15 12:17:38;;;;;;;67.57;35.17;;;;;;;;;;4980324;28;20266;-79
2020/12/15 12:20:04;;;;;;;67.00;33.03;;;;;;;;;;4980057;28;20701;-79
2020/12/15 12:22:30;;;;;;;63.60;32.70;;;;;;;;;;4981413;28;20184;-80
2020/12/15 12:24:56;;;;;;;64.67;33.03;;;;;;;;;;4962763;28;20212;-79
2020/12/15 12:27:25;;;;;;;70.73;33.93;;;;;;;;;;4979992;28;20188;-79
2020/12/15 12:29:51;;;;;;;63.93;32.20;;;;;;;;;;4979506;28;20211;-79
2020/12/15 12:32:17;;;;;;;60.00;32.17;;;;;;;;;;4978702;28;20191;-79
2020/12/15 12:34:43;;;;;;;59.57;31.87;;;;;;;;;;4979276;28;20200;-79
2020/12/15 12:37:10;;;;;;;69.43;31.97;;;;;;;;;;4979910;28;20181;-79
2020/12/15 12:39:37;;;;;;;63.97;32.10;;;;;;;;;;4979786;28;20598;-80
2020/12/15 12:42:03;;;;;;;68.77;32.53;;;;;;;;;;4979779;28;20227;-79
2020/12/15 12:44:32;;;;;;;77.47;41.17;;;;;;;;;;4979661;28;20180;-79
2020/12/15 12:46:58;;;;;;;59.07;32.33;;;;;;;;;;4971872;28;20250;-79
2020/12/15 12:49:24;;;;;;;69.13;32.90;;;;;;;;;;4977597;28;20216;-80
2020/12/15 12:51:52;;;;;;;64.13;33.77;;;;;;;;;;4978529;28;20189;-80
2020/12/15 12:54:18;;;;;;;63.40;32.13;;;;;;;;;;4962361;28;20188;-79
2020/12/15 12:56:44;;;;;;;69.23;33.57;;;;;;;;;;4961176;28;20189;-80
2020/12/15 12:59:11;;;;;;;64.93;33.70;;;;;;;;;;4964836;28;20212;-80
2020/12/15 13:01:38;;;;;;;76.83;39.40;;;;;;;;;;4963195;28;20186;-80
2020/12/15 13:04:04;;;;;;;97.80;48.60;;;;;;;;;;4981136;28;20185;-80
2020/12/15 13:06:30;;;;;;;75.53;36.77;;;;;;;;;;4979906;28;20176;-79
2020/12/15 13:08:56;;;;;;;70.67;35.67;;;;;;;;;;4981218;28;20211;-80
2020/12/15 13:11:23;;;;;;;66.47;33.27;;;;;;;;;;4981352;28;20696;-80
2020/12/15 13:13:49;;;;;;;69.13;34.80;;;;;;;;;;4981024;28;20173;-79
2020/12/15 13:16:16;;;;;;;71.43;33.90;;;;;;;;;;4981097;28;20188;-79
2020/12/15 13:18:42;;;;;;;65.37;34.30;;;;;;;;;;4982160;28;20212;-79
2020/12/15 13:21:08;;;;;;;73.47;35.17;;;;;;;;;;4982677;28;20204;-80
2020/12/15 13:23:34;;;;;;;73.17;35.47;;;;;;;;;;4967491;28;20239;-80
2020/12/15 13:26:00;;;;;;;66.23;34.87;;;;;;;;;;4969302;28;20185;-80
2020/12/15 13:28:27;;;;;;;71.03;35.47;;;;;;;;;;4970953;28;20212;-79
2020/12/15 13:30:54;;;;;;;79.90;39.20;;;;;;;;;;4965524;28;20276;-79
2020/12/15 13:33:20;;;;;;;67.10;34.53;;;;;;;;;;4981122;28;20601;-80
2020/12/15 13:35:47;;;;;;;74.03;34.43;;;;;;;;;;4980639;28;20196;-78
2020/12/15 13:38:13;;;;;;;67.23;32.47;;;;;;;;;;4981563;28;20315;-79
2020/12/15 13:40:40;;;;;;;65.00;32.80;;;;;;;;;;4981155;28;20266;-80
2020/12/15 13:43:06;;;;;;;59.90;31.67;;;;;;;;;;4980774;28;20211;-80
2020/12/15 13:45:32;;;;;;;53.47;30.20;;;;;;;;;;4973553;28;20184;-79
2020/12/15 13:47:59;;;;;;;59.23;30.27;;;;;;;;;;4976300;28;20219;-79
2020/12/15 13:50:25;;;;;;;52.83;29.07;;;;;;;;;;4973415;28;20223;-78
2020/12/15 13:52:51;;;;;;;57.50;30.50;;;;;;;;;;4981944;28;20176;-80
2020/12/15 13:55:17;;;;;;;54.57;29.97;;;;;;;;;;4975852;28;20181;-80
2020/12/15 13:57:43;;;;;;;52.77;29.40;;;;;;;;;;4962786;28;20192;-80
2020/12/15 14:00:09;;;;;;;45.57;26.57;;;;;;;;;;4980963;28;20212;-79
2020/12/15 14:02:36;;;;;;;40.63;25.10;;;;;;;;;;4980975;28;20180;-79
2020/12/15 14:05:03;;;;;;;43.97;26.93;;;;;;;;;;4966306;28;20248;-79
2020/12/15 14:07:34;;;;;;;80.97;44.27;;;;;;;;;;4969151;28;20669;-79
2020/12/15 14:10:00;;;;;;;58.83;33.67;;;;;;;;;;4981700;28;20185;-79
2020/12/15 14:12:26;;;;;;;54.43;28.43;;;;;;;;;;4982394;28;20307;-79